• Join FlightAware (Why Join?)
  • Login
  • US Flag 
03:09PM EDT


 

Airport Tracker/Info


-or-


 

Live Flight TrackerFlight Track Log ✈ XOJ750 ✈ 05-Jul-2013 ✈ KMDW - KTEB

Flight Track Log - Related Links

Times and Time Zones

All times are in EDT time to prevent confusion due to time zone crossing. See the XOJ750 flight status page for this flight to view local times or setup timezone preferences in your user account.

Time Position Orientation Groundspeed Altitude Reporting Facility
EDT Latitude Longitude Course Direction KTS MPH feet Rate Location/Type
12:03PM 41.8000 -87.7833 37° Northeast 191 220 2,000  Level Chicago TRACON
12:04PM 41.8500 -87.7333 37° Northeast 259 298 3,000 420 Climbing Chicago TRACON
12:05PM 41.8547 -87.6647 85° East 254 292 2,900 1,200 Descending Chicago Center
12:06PM 41.8522 -87.5686 92° East 260 299 5,400 2,820 Climbing Chicago Center
12:07PM 41.8328 -87.4675 104° East 276 318 8,800 3,300 Climbing Chicago Center
12:08PM 41.8142 -87.3608 103° East 290 334 12,200 3,180 Climbing Chicago Center
12:09PM 41.7967 -87.2183 99° East 327 376 15,400 2,580 Climbing Chicago Center
12:10PM 41.8311 -87.0922 70° East 356 410 17,600 1,920 Climbing Chicago Center
12:11PM 41.8797 -86.9575 64° Northeast 390 449 19,400 1,800 Climbing Chicago Center
12:12PM 41.9217 -86.8125 69° East 413 475 21,400 1,980 Climbing Chicago Center
12:13PM 41.9269 -86.6453 88° East 426 490 23,500 1,920 Climbing Chicago Center
12:14PM 41.9386 -86.4814 84° East 436 502 25,400 1,800 Climbing Chicago Center
12:15PM 41.9494 -86.3142 85° East 446 513 27,300 1,620 Climbing Chicago Center
12:16PM 41.9600 -86.1417 85° East 457 526 28,800 1,560 Climbing Chicago Center
12:17PM 41.9742 -85.9250 85° East 479 551 30,600 1,560 Climbing Chicago Center
12:18PM 41.9869 -85.7400 85° East 491 565 32,100 1,440 Climbing Chicago Center
12:19PM 41.9989 -85.5494 85° East 502 578 33,600 1,020 Climbing Chicago Center
12:20PM 42.0069 -85.3758 86° East 515 593 34,200 1,140 Climbing Chicago Center
12:21PM 42.0214 -85.1353 85° East 537 618 36,000 1,680 Climbing Chicago Center
12:22PM 42.0311 -84.9436 86° East 525 604 37,700 1,500 Climbing Chicago Center
12:23PM 42.0411 -84.7522 86° East 517 595 39,200 1,320 Climbing Chicago Center
12:24PM 42.0514 -84.5578 86° East 521 600 40,500 840 Climbing Chicago Center
12:25PM 42.0603 -84.3636 86° East 522 601 41,000 240 Climbing Chicago Center
12:26PM 42.0672 -84.1442 87° East 519 597 41,000 180 Level Cleveland Center
12:28PM 42.0831 -83.7447 87° East 535 616 41,700 420 Climbing Cleveland Center
12:29PM 42.0931 -83.5269 86° East 528 608 42,400 660 Climbing Cleveland Center
12:30PM 42.0978 -83.3342 88° East 523 602 43,100 660 Climbing Cleveland Center
12:31PM 42.0900 -83.1406 93° East 519 597 43,800 600 Climbing Cleveland Center
12:32PM 42.0878 -82.9503 91° East 514 592 44,300 480 Climbing Cleveland Center
12:33PM 42.0811 -82.7542 93° East 520 598 44,800 300 Climbing Cleveland Center
12:34PM 42.0764 -82.5608 92° East 520 598 45,000 60 Climbing Cleveland Center
12:35PM 42.0669 -82.3706 94° East 520 598 45,000  Level Cleveland Center
12:36PM 42.0697 -82.1719 89° East 520 598 45,000  Level Cleveland Center
12:37PM 42.0639 -81.9928 92° East 520 598 45,000  Level Cleveland Center
12:38PM 42.0597 -81.8025 92° East 520 598 45,000  Level Cleveland Center
12:39PM 42.0514 -81.5869 93° East 515 593 45,000  Level Cleveland Center
12:40PM 42.0467 -81.3911 92° East 516 594 45,000  Level Cleveland Center
12:41PM 42.0375 -81.2011 94° East 516 594 45,000  Level Cleveland Center
12:42PM 42.0322 -81.0081 92° East 515 593 45,000  Level Cleveland Center
12:43PM 42.0244 -80.8122 93° East 521 600 45,000  Level Cleveland Center
12:44PM 42.0142 -80.6167 94° East 521 600 45,000  Level Cleveland Center
12:45PM 42.0058 -80.4239 93° East 523 602 45,000  Level Cleveland Center
12:46PM 41.9992 -80.2506 93° East 518 596 45,000  Level Cleveland Center
12:47PM 41.9900 -80.0581 94° East 513 590 45,000  Level Cleveland Center
12:48PM 41.9806 -79.8431 93° East 513 590 45,000  Level Cleveland Center
12:49PM 41.9708 -79.6503 94° East 518 596 45,000  Level Cleveland Center
12:50PM 41.9608 -79.4578 94° East 518 596 45,000  Level Cleveland Center
12:51PM 41.9503 -79.2625 94° East 518 596 45,000  Level Cleveland Center
12:52PM 41.9397 -79.0703 94° East 518 596 45,000  Level Cleveland Center
12:53PM 41.9286 -78.8778 94° East 518 596 45,000  Level Cleveland Center
12:54PM 41.9172 -78.6856 94° East 518 596 45,000  Level Cleveland Center
12:55PM 41.9075 -78.4906 94° East 518 596 45,000 -60 Level Cleveland Center
12:56PM 41.8936 -78.3042 96° East 518 596 44,900 -1,500 Descending Cleveland Center
12:58PM 41.8744 -77.9967 95° East 481 554 40,900 -2,520 Descending New York Center
12:59PM 41.8522 -77.8133 99° East 493 567 38,100 -2,700 Descending New York Center
01:00PM 41.8044 -77.6300 109° East 500 575 35,500 -1,560 Descending New York Center
01:01PM 41.7567 -77.4472 109° East 510 587 35,000 -600 Descending New York Center
01:02PM 41.7083 -77.2644 109° East 521 600 34,400 -1,260 Descending New York Center
01:03PM 41.7103 -77.0728 89° East 507 583 32,500 -1,500 Descending New York Center
01:04PM 41.6850 -76.8789 100° East 523 602 31,500 -1,860 Descending New York Center
01:05PM 41.6200 -76.6814 114° Southeast 523 602 28,900 -2,520 Descending New York Center
01:06PM 41.5581 -76.5039 115° Southeast 523 602 26,500 -2,160 Descending New York Center
01:07PM 41.4994 -76.3328 115° Southeast 523 602 24,600 -1,680 Descending New York Center
01:08PM 41.4461 -76.1789 115° Southeast 517 595 23,200 -1,620 Descending New York Center
01:09PM 41.3867 -76.0164 116° Southeast 506 582 21,500 -1,740 Descending New York Center
01:10PM 41.3311 -75.8603 115° Southeast 485 558 19,800 -1,680 Descending New York Center
01:11PM 41.2753 -75.7014 115° Southeast 479 551 18,200 -1,860 Descending New York Center
01:12PM 41.2197 -75.5319 114° Southeast 466 536 16,100 -2,400 Descending New York Center
01:13PM 41.1772 -75.3992 113° Southeast 440 506 13,500 -2,460 Descending New York Center
01:14PM 41.1614 -75.2658 99° East 375 432 11,200 -1,980 Descending New York Center
01:15PM 41.1603 -75.1336 91° East 342 394 9,500 -1,740 Descending New York Center
01:16PM 41.1006 -75.0553 135° Southeast 291 335 7,800 -1,800 Descending New York Center
01:17PM 41.0428 -74.9828 137° Southeast 284 327 6,100 -900 Descending New York Center
01:18PM 41.0294 -74.8858 100° East 286 329 6,000 -180 Descending New York Center
01:19PM 41.0294 -74.7675 90° East 286 329 5,800 -720 Descending New York Center
01:20PM 41.0283 -74.6711 91° East 291 335 4,600 -900 Descending New York Center
01:21PM 41.0281 -74.5583 90° East 291 335 4,000 -720 Descending New York Center
01:22PM 41.0289 -74.4650 89° East 291 335 3,200 -540 Descending New York Center
01:23PM 41.0303 -74.3522 89° East 286 329 3,000 -120 Descending New York Center
01:24PM 41.0267 -74.2642 93° East 274 315 3,000 -480 Level New York Center
01:25PM 41.0233 -74.1650 93° East 269 310 2,100 -540 Descending New York Center
01:26PM 41.0031 -74.0650 105° East 258 297 2,000 -180 Descending New York Center
01:27PM 40.9536 -74.0544 171° South 197 227 1,800 -540 Descending New York Center
01:28PM 40.9056 -74.0575 183° South 169 194 1,000 -780 Descending New York Center
01:29PM 40.8722 -74.0586 181° South 147 169 300 -720 Descending New York Center
01:31PM 40.8500 -74.0500 180° South  Level FlightAware Approximate
01:38PM 40.8501 -74.0608 180° South  Level Estimated